Time;durP1;ratioP1;P1;durP2;ratioP2;P2;SDS_P1;SDS_P2;PMS_P1;PMS_P2;Temp;Humidity;BMP_temperature;BMP_pressure;BME280_temperature;BME280_humidity;BME280_pressure;Samples;Min_cycle;Max_cycle;Signal;HPM_P1;HPM_P2
2022/04/11 00:00:23;;;;;;;11.83;8.03;;;1.60;61.10;;;;;;5062621;28;46425;-64
2022/04/11 00:02:49;;;;;;;14.87;8.57;;;1.60;61.40;;;;;;5063936;28;46310;-64
2022/04/11 00:05:15;;;;;;;16.63;8.10;;;1.60;61.30;;;;;;5063904;28;46358;-64
2022/04/11 00:07:41;;;;;;;13.57;8.10;;;1.60;61.50;;;;;;5065312;28;46139;-65
2022/04/11 00:10:07;;;;;;;12.37;8.10;;;1.60;61.60;;;;;;5065432;28;46332;-64
2022/04/11 00:12:35;;;;;;;12.68;8.77;;;1.60;61.70;;;;;;5064281;28;46454;-64
2022/04/11 00:15:04;;;;;;;17.60;8.27;;;1.60;61.70;;;;;;5063372;28;46351;-64
2022/04/11 00:17:30;;;;;;;15.45;8.43;;;1.60;61.80;;;;;;5064210;28;47465;-63
2022/04/11 00:19:55;;;;;;;18.93;8.23;;;1.60;61.80;;;;;;5065083;28;46364;-63
2022/04/11 00:22:21;;;;;;;11.83;7.60;;;1.50;61.90;;;;;;5065074;28;45850;-63
2022/04/11 00:24:49;;;;;;;18.13;7.90;;;1.50;62.00;;;;;;5063618;28;46585;-62
2022/04/11 00:27:15;;;;;;;16.70;8.60;;;1.50;62.20;;;;;;5064337;28;48068;-63
2022/04/11 00:29:40;;;;;;;11.40;7.17;;;1.50;62.20;;;;;;5061168;28;46425;-63
2022/04/11 00:32:06;;;;;;;12.40;8.53;;;1.40;62.20;;;;;;5062702;28;46306;-63
2022/04/11 00:34:32;;;;;;;12.52;7.47;;;1.40;62.30;;;;;;5065010;28;46593;-62
2022/04/11 00:36:57;;;;;;;12.13;7.33;;;1.40;62.30;;;;;;5064719;28;47892;-64
2022/04/11 00:39:23;;;;;;;10.63;7.53;;;1.40;62.40;;;;;;5063373;28;45734;-64
2022/04/11 00:41:49;;;;;;;12.20;7.47;;;1.40;62.30;;;;;;5082952;28;46385;-63
2022/04/11 00:44:14;;;;;;;12.53;6.73;;;1.40;62.40;;;;;;5064857;28;46476;-63
2022/04/11 00:46:40;;;;;;;14.00;8.40;;;1.40;62.40;;;;;;5063162;28;48013;-63
2022/04/11 00:49:06;;;;;;;9.37;7.10;;;1.40;62.40;;;;;;5064298;28;46447;-63
2022/04/11 00:51:32;;;;;;;14.83;7.10;;;1.40;62.40;;;;;;5064908;28;45794;-64
2022/04/11 00:53:59;;;;;;;14.18;8.30;;;1.40;62.40;;;;;;5079538;28;46406;-64
2022/04/11 00:56:28;;;;;;;13.07;8.07;;;1.40;62.40;;;;;;5064128;28;46472;-64
2022/04/11 00:58:55;;;;;;;14.18;8.05;;;1.40;62.30;;;;;;5064284;28;46389;-62
2022/04/11 01:01:21;;;;;;;12.85;7.93;;;1.40;62.40;;;;;;5063976;28;46475;-63
2022/04/11 01:03:46;;;;;;;14.10;7.97;;;1.30;62.40;;;;;;5064475;28;46562;-64
2022/04/11 01:06:13;;;;;;;11.37;7.20;;;1.30;62.40;;;;;;5064001;28;47906;-64
2022/04/11 01:08:39;;;;;;;14.43;8.50;;;1.30;62.50;;;;;;5063618;28;46655;-64
2022/04/11 01:11:05;;;;;;;13.17;7.93;;;1.30;62.70;;;;;;5064155;28;46414;-64
2022/04/11 01:13:31;;;;;;;11.88;8.15;;;1.30;62.70;;;;;;5064221;28;46390;-64
2022/04/11 01:15:59;;;;;;;12.60;7.43;;;1.30;62.80;;;;;;5058659;28;48234;-64
2022/04/11 01:18:25;;;;;;;15.30;7.13;;;1.30;62.80;;;;;;5064461;28;46641;-64
2022/04/11 01:20:52;;;;;;;12.35;7.45;;;1.20;62.80;;;;;;5064135;28;46403;-64
2022/04/11 01:23:17;;;;;;;21.92;8.40;;;1.20;62.90;;;;;;5063803;28;46442;-64
2022/04/11 01:25:49;;;;;;;13.10;7.07;;;1.20;63.10;;;;;;5063698;28;46661;-62
2022/04/11 01:28:15;;;;;;;18.77;9.00;;;1.10;63.20;;;;;;5063426;28;45807;-64
2022/04/11 01:30:41;;;;;;;14.17;7.50;;;1.10;63.30;;;;;;5064105;28;46427;-63
2022/04/11 01:33:26;;;;;;;12.93;8.37;;;1.10;63.30;;;;;;5063969;28;46456;-65
2022/04/11 01:35:52;;;;;;;12.68;7.60;;;1.10;63.20;;;;;;5080223;28;48953;-64
2022/04/11 01:38:18;;;;;;;14.50;8.00;;;1.20;63.20;;;;;;5061824;28;46521;-62
2022/04/11 01:40:55;;;;;;;13.88;8.73;;;1.10;63.20;;;;;;5063815;28;46414;-64
2022/04/11 01:43:22;;;;;;;13.85;8.32;;;1.10;63.20;;;;;;5053816;28;46373;-64
2022/04/11 01:45:48;;;;;;;15.68;8.18;;;1.10;63.30;;;;;;5063500;28;46367;-63
2022/04/11 01:48:14;;;;;;;14.50;8.38;;;1.10;63.30;;;;;;5081548;28;46365;-64
2022/04/11 01:50:40;;;;;;;17.27;8.50;;;1.10;63.40;;;;;;5063814;28;46312;-64
2022/04/11 01:53:08;;;;;;;12.52;8.95;;;1.10;63.40;;;;;;5064202;28;46470;-64
2022/04/11 01:55:34;;;;;;;14.30;9.32;;;1.10;63.40;;;;;;5061273;28;48044;-64
2022/04/11 01:58:01;;;;;;;12.75;8.30;;;1.10;63.50;;;;;;5063461;28;46482;-64
2022/04/11 02:00:27;;;;;;;13.95;8.73;;;1.10;63.50;;;;;;5063532;28;46336;-64
2022/04/11 02:02:53;;;;;;;15.70;8.67;;;1.10;63.50;;;;;;5063145;28;46260;-63
2022/04/11 02:05:19;;;;;;;16.03;8.20;;;1.20;63.50;;;;;;5058228;28;48812;-65
2022/04/11 02:07:44;;;;;;;13.27;7.53;;;1.10;63.50;;;;;;5062195;28;46287;-63
2022/04/11 02:10:10;;;;;;;15.67;7.80;;;1.10;63.40;;;;;;5061821;28;46316;-63
2022/04/11 02:12:36;;;;;;;12.23;7.67;;;1.10;63.50;;;;;;5059905;28;46354;-63
2022/04/11 02:15:02;;;;;;;13.00;8.13;;;1.20;63.50;;;;;;5058899;28;47960;-63
2022/04/11 02:17:27;;;;;;;15.85;8.43;;;1.20;63.50;;;;;;5061367;28;46466;-63
2022/04/11 02:19:53;;;;;;;15.50;8.60;;;1.20;63.50;;;;;;5061072;28;46416;-63
2022/04/11 02:22:19;;;;;;;16.70;9.00;;;1.20;63.40;;;;;;5059422;28;46512;-64
2022/04/11 02:24:44;;;;;;;13.80;8.40;;;1.20;63.40;;;;;;5059192;28;46401;-64
2022/04/11 02:27:10;;;;;;;13.00;7.97;;;1.30;63.40;;;;;;5059715;28;46358;-64
2022/04/11 02:29:36;;;;;;;15.13;8.57;;;1.30;63.40;;;;;;5059774;28;46561;-64
2022/04/11 02:32:02;;;;;;;12.63;8.13;;;1.30;63.40;;;;;;5060962;28;46923;-65
2022/04/11 02:34:29;;;;;;;14.07;8.53;;;1.20;63.40;;;;;;5059728;28;49100;-65
2022/04/11 02:36:54;;;;;;;10.57;7.20;;;1.20;63.50;;;;;;5060852;28;46641;-63
2022/04/11 02:39:21;;;;;;;15.03;8.20;;;1.20;63.60;;;;;;5059798;28;46220;-63
2022/04/11 02:41:47;;;;;;;15.60;8.70;;;1.10;63.60;;;;;;5061756;28;46554;-64
2022/04/11 02:44:13;;;;;;;12.35;7.28;;;1.20;63.80;;;;;;5080048;28;49095;-65
2022/04/11 02:46:42;;;;;;;11.68;7.50;;;1.10;63.60;;;;;;5081365;28;46320;-64
2022/04/11 02:49:08;;;;;;;15.20;7.78;;;1.10;63.60;;;;;;5057777;28;46429;-64
2022/04/11 02:51:34;;;;;;;10.68;7.45;;;1.20;63.70;;;;;;5055147;28;46944;-64
2022/04/11 02:54:02;;;;;;;11.45;7.13;;;1.20;63.70;;;;;;5064942;28;48701;-62
2022/04/11 02:56:28;;;;;;;10.90;6.82;;;1.20;63.50;;;;;;5064241;28;46434;-63
2022/04/11 02:58:53;;;;;;;9.47;6.80;;;1.30;63.60;;;;;;5083308;28;46398;-64
2022/04/11 03:01:19;;;;;;;9.80;6.20;;;1.30;63.60;;;;;;5065942;28;46453;-63
2022/04/11 03:03:45;;;;;;;11.37;6.80;;;1.30;63.60;;;;;;5066336;28;46362;-63
2022/04/11 03:06:11;;;;;;;9.00;6.23;;;1.30;63.40;;;;;;5065844;28;46383;-64
2022/04/11 03:08:36;;;;;;;9.80;6.10;;;1.40;63.50;;;;;;5066176;28;45946;-63
2022/04/11 03:11:02;;;;;;;8.83;6.17;;;1.40;63.30;;;;;;5066300;28;46401;-64
2022/04/11 03:13:28;;;;;;;9.47;6.10;;;1.40;63.30;;;;;;5065605;28;47900;-63
2022/04/11 03:15:53;;;;;;;8.93;5.87;;;1.50;63.30;;;;;;5065037;28;46480;-63
2022/04/11 03:18:19;;;;;;;8.83;6.47;;;1.50;63.30;;;;;;5066195;28;46408;-64
2022/04/11 03:20:47;;;;;;;10.23;6.40;;;1.50;63.20;;;;;;5065920;28;46393;-62
2022/04/11 03:23:16;;;;;;;10.00;6.50;;;1.50;63.10;;;;;;5065313;28;47379;-64
2022/04/11 03:25:42;;;;;;;7.70;5.63;;;1.60;63.20;;;;;;5065460;28;46587;-64
2022/04/11 03:28:11;;;;;;;10.70;6.30;;;1.60;63.30;;;;;;5065762;28;46457;-64
2022/04/11 03:30:37;;;;;;;10.05;5.82;;;1.60;63.30;;;;;;5065561;28;46412;-64
2022/04/11 03:33:02;;;;;;;9.37;6.17;;;1.50;63.20;;;;;;5065485;28;47995;-63
2022/04/11 03:35:29;;;;;;;9.90;6.37;;;1.60;63.20;;;;;;5065302;28;46418;-62
2022/04/11 03:37:55;;;;;;;10.48;6.15;;;1.60;63.30;;;;;;5064223;28;46441;-62
2022/04/11 03:40:20;;;;;;;9.90;6.43;;;1.60;63.30;;;;;;5049005;28;46386;-64
2022/04/11 03:42:46;;;;;;;9.07;5.70;;;1.60;63.30;;;;;;5065406;28;47764;-64
2022/04/11 03:45:12;;;;;;;7.57;5.57;;;1.60;63.30;;;;;;5065275;28;46276;-64
2022/04/11 03:47:38;;;;;;;10.30;5.90;;;1.60;63.50;;;;;;5065908;28;46406;-63
2022/04/11 03:50:04;;;;;;;6.82;5.40;;;1.60;63.30;;;;;;5065529;28;46522;-62
2022/04/11 03:52:30;;;;;;;8.88;6.30;;;1.70;63.50;;;;;;5065537;28;47233;-64
2022/04/11 03:54:56;;;;;;;11.20;6.00;;;1.70;63.50;;;;;;5064652;28;46514;-64
2022/04/11 03:57:22;;;;;;;8.30;5.23;;;1.70;63.50;;;;;;5065545;28;46428;-64
2022/04/11 03:59:47;;;;;;;7.10;5.60;;;1.70;63.40;;;;;;5065320;28;45937;-64
2022/04/11 04:02:13;;;;;;;8.53;5.60;;;1.70;63.50;;;;;;5065685;28;48138;-64
2022/04/11 04:04:39;;;;;;;11.03;6.87;;;1.70;63.70;;;;;;5065072;28;46441;-64
2022/04/11 04:07:04;;;;;;;10.70;7.17;;;1.80;64.10;;;;;;5065662;28;46437;-63
2022/04/11 04:09:30;;;;;;;12.80;8.47;;;1.70;64.10;;;;;;5083648;28;46397;-63
2022/04/11 04:11:56;;;;;;;15.70;7.67;;;1.70;64.10;;;;;;5065036;28;47182;-63
2022/04/11 04:14:22;;;;;;;14.73;7.60;;;1.70;64.10;;;;;;5064957;28;45878;-64
2022/04/11 04:16:48;;;;;;;14.43;8.30;;;1.70;64.20;;;;;;5065522;28;46220;-64
2022/04/11 04:19:13;;;;;;;12.40;8.40;;;1.70;64.40;;;;;;5065371;28;46290;-62
2022/04/11 04:21:39;;;;;;;15.20;7.93;;;1.60;64.30;;;;;;5064941;28;46384;-66
2022/04/11 04:24:05;;;;;;;14.63;9.20;;;1.60;64.40;;;;;;5065325;28;45723;-64
2022/04/11 04:26:31;;;;;;;15.50;10.32;;;1.60;64.40;;;;;;5064583;28;46310;-64
2022/04/11 04:28:57;;;;;;;14.53;9.83;;;1.60;64.60;;;;;;5064971;28;46490;-64
2022/04/11 04:31:22;;;;;;;13.63;8.80;;;1.60;64.50;;;;;;5064713;28;47931;-64
2022/04/11 04:33:48;;;;;;;13.67;8.73;;;1.60;64.40;;;;;;5056036;28;46334;-65
2022/04/11 04:36:14;;;;;;;12.20;7.30;;;1.60;64.50;;;;;;5064698;28;46502;-64
2022/04/11 04:38:39;;;;;;;8.87;6.30;;;1.60;64.50;;;;;;5064720;28;46663;-65
2022/04/11 04:41:05;;;;;;;8.70;6.33;;;1.60;64.40;;;;;;5082872;28;47046;-64
2022/04/11 04:43:31;;;;;;;12.03;6.53;;;1.70;64.50;;;;;;5064755;28;46628;-64
2022/04/11 04:45:57;;;;;;;10.37;6.90;;;1.70;64.40;;;;;;5064838;28;46372;-64
2022/04/11 04:48:22;;;;;;;13.40;8.03;;;1.70;64.40;;;;;;5065021;28;46377;-65
2022/04/11 04:50:48;;;;;;;10.90;5.87;;;1.70;64.40;;;;;;5064694;28;47764;-65
2022/04/11 04:53:13;;;;;;;10.10;6.20;;;1.70;64.40;;;;;;5064941;28;46355;-65
2022/04/11 04:55:39;;;;;;;9.90;7.20;;;1.70;64.40;;;;;;5064466;28;46730;-64
2022/04/11 04:58:05;;;;;;;11.07;6.37;;;1.70;64.30;;;;;;5064557;28;46367;-64
2022/04/11 05:00:31;;;;;;;14.83;6.40;;;1.80;64.40;;;;;;5064301;28;46446;-64
2022/04/11 05:02:56;;;;;;;9.93;6.50;;;1.80;64.30;;;;;;5061480;27;45808;-64
2022/04/11 05:05:22;;;;;;;14.70;7.83;;;1.80;64.30;;;;;;5063477;28;46473;-64
2022/04/11 05:07:48;;;;;;;13.05;8.32;;;1.90;64.20;;;;;;5064797;28;46417;-62
2022/04/11 05:10:14;;;;;;;16.07;7.80;;;2.00;64.10;;;;;;5064209;28;48006;-65
2022/04/11 05:12:45;;;;;;;18.97;7.43;;;2.10;64.00;;;;;;5064406;28;46343;-65
2022/04/11 05:15:12;;;;;;;13.93;7.50;;;2.10;63.80;;;;;;5063287;28;46357;-64
2022/04/11 05:17:37;;;;;;;22.23;8.27;;;2.20;63.60;;;;;;5064800;28;46441;-64
2022/04/11 05:20:06;;;;;;;14.70;9.53;;;2.30;63.50;;;;;;5064112;28;46472;-63
2022/04/11 05:22:32;;;;;;;18.40;9.93;;;2.40;63.50;;;;;;5064392;28;46110;-65
2022/04/11 05:24:58;;;;;;;11.23;6.63;;;2.50;63.50;;;;;;5064223;28;46406;-64
2022/04/11 05:27:24;;;;;;;11.63;6.83;;;2.60;63.10;;;;;;5064615;28;46652;-65
2022/04/11 05:29:49;;;;;;;11.20;6.10;;;2.70;62.90;;;;;;5064258;28;46384;-63
2022/04/11 05:32:15;;;;;;;10.77;5.53;;;2.90;62.90;;;;;;5060687;27;46365;-63
2022/04/11 05:34:41;;;;;;;9.77;5.30;;;3.00;62.80;;;;;;5060239;28;46385;-64
2022/04/11 05:37:07;;;;;;;10.53;4.97;;;3.00;62.60;;;;;;5061954;28;46481;-64
2022/04/11 05:39:33;;;;;;;5.78;3.90;;;3.20;62.60;;;;;;5061699;28;46422;-62
2022/04/11 05:41:59;;;;;;;10.70;5.53;;;3.20;62.60;;;;;;5063020;28;47159;-64
2022/04/11 05:44:24;;;;;;;13.33;7.83;;;3.20;62.70;;;;;;5062113;28;46477;-65
2022/04/11 05:46:52;;;;;;;9.10;4.97;;;3.30;62.80;;;;;;5063506;28;46428;-64
2022/04/11 05:49:24;;;;;;;8.52;5.40;;;3.40;62.70;;;;;;5062900;28;47959;-64
2022/04/11 05:51:50;;;;;;;10.55;5.65;;;3.60;62.50;;;;;;5062077;28;46465;-64
2022/04/11 05:54:16;;;;;;;17.77;5.80;;;3.80;62.40;;;;;;5061256;28;46402;-65
2022/04/11 05:56:42;;;;;;;7.23;4.90;;;4.10;62.40;;;;;;5062079;28;46423;-62
2022/04/11 05:59:08;;;;;;;6.75;5.25;;;4.40;62.30;;;;;;5052261;28;46414;-65
2022/04/11 06:01:40;;;;;;;10.53;4.23;;;4.70;61.90;;;;;;5062683;28;46286;-64
2022/04/11 06:04:06;;;;;;;12.10;5.00;;;4.90;61.70;;;;;;5055327;28;46357;-64
2022/04/11 06:06:31;;;;;;;8.83;5.40;;;5.30;61.30;;;;;;5063203;28;46507;-64
2022/04/11 06:08:57;;;;;;;12.40;7.10;;;5.50;61.40;;;;;;5063261;28;47845;-65
2022/04/11 06:11:23;;;;;;;11.50;6.20;;;5.80;60.50;;;;;;5064277;28;46272;-65
2022/04/11 06:13:49;;;;;;;9.27;5.90;;;6.00;60.60;;;;;;5065466;28;46398;-65
2022/04/11 06:16:15;;;;;;;8.70;5.67;;;6.00;58.80;;;;;;5066177;28;46558;-64
2022/04/11 06:18:40;;;;;;;11.40;6.30;;;5.90;58.90;;;;;;5067788;28;46586;-65
2022/04/11 06:21:06;;;;;;;15.53;7.10;;;5.70;59.10;;;;;;5066927;28;46423;-64
2022/04/11 06:23:32;;;;;;;10.03;5.90;;;5.70;59.20;;;;;;5067134;28;46532;-64
2022/04/11 06:25:59;;;;;;;7.53;4.40;;;5.60;59.70;;;;;;5066769;28;46433;-64
2022/04/11 06:28:24;;;;;;;7.33;4.73;;;5.60;60.30;;;;;;5066819;28;47196;-64
2022/04/11 06:30:50;;;;;;;9.67;4.77;;;5.70;60.50;;;;;;5084786;28;46406;-64
2022/04/11 06:33:18;;;;;;;9.20;5.40;;;6.30;58.40;;;;;;5067283;28;45869;-64
2022/04/11 06:35:43;;;;;;;9.20;5.23;;;6.60;57.20;;;;;;5056058;28;46401;-64
2022/04/11 06:38:09;;;;;;;11.40;5.70;;;6.30;57.70;;;;;;5066554;28;47907;-63
2022/04/11 06:40:38;;;;;;;6.67;4.77;;;6.00;58.60;;;;;;5069816;28;46483;-65
2022/04/11 06:43:04;;;;;;;9.40;4.70;;;6.00;58.50;;;;;;5053843;28;46398;-64
2022/04/11 06:45:29;;;;;;;8.67;4.90;;;5.90;58.50;;;;;;5070050;28;46445;-62
2022/04/11 06:47:55;;;;;;;8.47;5.70;;;6.00;58.70;;;;;;5087991;28;46354;-64
2022/04/11 06:50:21;;;;;;;14.40;6.20;;;6.10;58.60;;;;;;5069275;28;46398;-65
2022/04/11 06:52:46;;;;;;;8.50;5.40;;;6.30;58.30;;;;;;5067658;28;46222;-64
2022/04/11 06:55:15;;;;;;;6.90;4.63;;;6.40;58.30;;;;;;5068074;28;46564;-64
2022/04/11 06:57:41;;;;;;;9.23;5.00;;;6.50;58.20;;;;;;5067758;28;47975;-63
2022/04/11 07:00:07;;;;;;;7.33;4.40;;;6.90;57.80;;;;;;5050322;28;46292;-64
2022/04/11 07:02:32;;;;;;;7.40;4.37;;;7.00;56.90;;;;;;5067069;28;46525;-64
2022/04/11 07:04:58;;;;;;;10.43;4.30;;;7.10;56.40;;;;;;5064735;28;46393;-64
2022/04/11 07:07:24;;;;;;;9.87;4.10;;;7.20;56.10;;;;;;5060592;28;48180;-63
2022/04/11 07:09:50;;;;;;;5.43;3.30;;;7.20;56.50;;;;;;5083273;28;46480;-64
2022/04/11 07:12:15;;;;;;;4.40;3.03;;;7.20;56.10;;;;;;5062792;28;45955;-64
2022/04/11 07:14:41;;;;;;;5.27;3.50;;;7.10;56.10;;;;;;5063252;28;46532;-64
2022/04/11 07:17:07;;;;;;;5.43;3.47;;;7.10;56.40;;;;;;5060180;28;47935;-64
2022/04/11 07:19:32;;;;;;;4.67;3.20;;;7.20;56.00;;;;;;5054605;28;46434;-63
2022/04/11 07:21:58;;;;;;;8.40;3.67;;;7.30;56.10;;;;;;5065433;28;46644;-64
2022/04/11 07:24:24;;;;;;;8.23;3.17;;;7.70;54.90;;;;;;5066042;28;46408;-65
2022/04/11 07:26:50;;;;;;;5.27;3.30;;;7.90;53.80;;;;;;5062052;28;48048;-64
2022/04/11 07:29:15;;;;;;;6.70;2.73;;;8.20;53.20;;;;;;5065682;28;46422;-64
2022/04/11 07:31:41;;;;;;;6.40;2.40;;;8.50;51.30;;;;;;5065705;28;46457;-64
2022/04/11 07:34:07;;;;;;;7.43;2.80;;;8.70;50.30;;;;;;5062452;28;46534;-64
2022/04/11 07:36:32;;;;;;;5.90;2.97;;;8.90;50.10;;;;;;5059015;28;47974;-65
2022/04/11 07:38:58;;;;;;;4.80;3.13;;;9.10;49.60;;;;;;5058006;28;46468;-64
2022/04/11 07:41:24;;;;;;;8.47;3.13;;;9.20;49.00;;;;;;5060965;28;45906;-64
2022/04/11 07:43:51;;;;;;;8.43;3.30;;;9.00;49.20;;;;;;5062577;28;45957;-63
2022/04/11 07:46:16;;;;;;;8.47;2.80;;;9.00;49.40;;;;;;5061492;28;48699;-64
2022/04/11 07:48:43;;;;;;;5.73;2.90;;;9.00;49.40;;;;;;5062808;28;46433;-64
2022/04/11 07:51:09;;;;;;;6.60;2.70;;;9.20;49.20;;;;;;5064378;28;46350;-64
2022/04/11 07:53:35;;;;;;;3.17;2.20;;;9.30;48.30;;;;;;5060383;28;46541;-64
2022/04/11 07:56:01;;;;;;;4.20;2.30;;;9.20;46.90;;;;;;5059574;28;47974;-64
2022/04/11 07:58:26;;;;;;;4.57;2.30;;;9.10;47.50;;;;;;5061222;28;46496;-63
2022/04/11 08:00:52;;;;;;;6.80;2.50;;;9.00;46.60;;;;;;5060230;28;46488;-64
2022/04/11 08:03:18;;;;;;;5.80;3.13;;;8.90;47.60;;;;;;5059779;28;46540;-64
2022/04/11 08:05:45;;;;;;;3.67;2.40;;;8.90;46.60;;;;;;5060135;28;48884;-65
2022/04/11 08:08:10;;;;;;;6.40;2.90;;;9.00;46.20;;;;;;5080835;28;46190;-64
2022/04/11 08:10:36;;;;;;;5.90;2.60;;;9.10;45.40;;;;;;5061389;28;46464;-64
2022/04/11 08:13:02;;;;;;;3.50;2.17;;;9.00;44.90;;;;;;5059644;28;46578;-64
2022/04/11 08:15:31;;;;;;;5.00;2.70;;;9.00;45.10;;;;;;5060735;28;48143;-63
2022/04/11 08:17:57;;;;;;;4.00;2.30;;;9.10;45.30;;;;;;5078705;28;46330;-64
2022/04/11 08:20:26;;;;;;;5.30;2.43;;;9.10;45.40;;;;;;5078527;28;46426;-63
2022/04/11 08:22:53;;;;;;;5.97;2.60;;;9.10;44.80;;;;;;5060699;28;46600;-63
2022/04/11 08:25:19;;;;;;;3.53;1.90;;;9.10;44.60;;;;;;5060478;28;46874;-63
2022/04/11 08:27:45;;;;;;;3.83;1.80;;;9.10;43.30;;;;;;5062551;28;46457;-67
2022/04/11 08:30:13;;;;;;;3.33;2.07;;;9.00;43.20;;;;;;5073455;28;46605;-63
2022/04/11 08:32:39;;;;;;;4.20;2.00;;;9.00;42.70;;;;;;5059495;28;45943;-64
2022/04/11 08:35:06;;;;;;;4.33;2.23;;;8.90;42.30;;;;;;5061887;28;48024;-64
2022/04/11 08:37:31;;;;;;;6.03;2.47;;;9.00;42.80;;;;;;5056274;28;46330;-63
2022/04/11 08:39:57;;;;;;;4.93;2.13;;;9.20;42.20;;;;;;5060910;28;46323;-64
2022/04/11 08:42:24;;;;;;;4.13;1.47;;;9.20;40.60;;;;;;5059807;28;46540;-64
2022/04/11 08:44:55;;;;;;;2.60;1.60;;;9.20;38.70;;;;;;5062225;28;46619;-64
2022/04/11 08:47:21;;;;;;;6.13;2.07;;;9.20;38.80;;;;;;5062442;28;46360;-64
2022/04/11 08:49:47;;;;;;;3.47;2.07;;;9.30;38.80;;;;;;5062012;28;46473;-64
2022/04/11 08:52:18;;;;;;;4.23;2.20;;;9.50;39.00;;;;;;5047558;28;46509;-64
2022/04/11 08:54:45;;;;;;;3.50;2.00;;;9.60;39.30;;;;;;5062293;28;48047;-63
2022/04/11 08:57:11;;;;;;;3.67;1.67;;;9.80;39.20;;;;;;5079716;28;45918;-62
2022/04/11 08:59:36;;;;;;;3.87;2.50;;;9.70;39.10;;;;;;5060948;28;46580;-63
2022/04/11 09:02:09;;;;;;;4.77;2.40;;;9.70;39.10;;;;;;5074409;28;46761;-63
2022/04/11 09:04:48;;;;;;;3.20;2.20;;;9.80;39.20;;;;;;5061358;28;49050;-63
2022/04/11 09:07:14;;;;;;;5.17;1.73;;;9.60;39.00;;;;;;5059200;28;45921;-62
2022/04/11 09:09:40;;;;;;;5.00;2.53;;;9.80;39.20;;;;;;5057889;28;46532;-62
2022/04/11 09:12:06;;;;;;;6.90;2.23;;;9.90;39.30;;;;;;5056967;28;45914;-62
2022/04/11 09:14:32;;;;;;;4.27;2.10;;;9.90;39.30;;;;;;5059274;28;49284;-62
2022/04/11 09:16:58;;;;;;;4.00;2.17;;;10.00;37.70;;;;;;5061577;28;46476;-64
2022/04/11 09:19:26;;;;;;;5.37;2.13;;;10.10;37.20;;;;;;5045595;28;46367;-62
2022/04/11 09:21:54;;;;;;;4.10;2.20;;;10.30;37.20;;;;;;5079439;28;46484;-63
2022/04/11 09:24:22;;;;;;;5.03;1.87;;;10.40;36.40;;;;;;5059712;28;46383;-63
2022/04/11 09:26:50;;;;;;;3.63;2.57;;;10.30;35.00;;;;;;5058760;28;46409;-63
2022/04/11 09:29:15;;;;;;;5.47;2.40;;;10.40;37.00;;;;;;5060732;28;46453;-64
2022/04/11 09:31:42;;;;;;;4.47;2.03;;;10.60;35.00;;;;;;5064177;28;46319;-64
2022/04/11 09:34:22;;;;;;;3.83;2.50;;;10.60;35.00;;;;;;5063467;28;47127;-64
2022/04/11 09:36:52;;;;;;;4.10;2.00;;;10.60;35.10;;;;;;5063459;28;46460;-64
2022/04/11 09:39:23;;;;;;;4.20;2.10;;;10.50;33.60;;;;;;5062783;28;46390;-64
2022/04/11 09:41:50;;;;;;;7.23;2.13;;;10.40;33.50;;;;;;5063552;28;46499;-64
2022/04/11 09:44:25;;;;;;;4.70;2.33;;;10.40;33.00;;;;;;5062987;28;48856;-64
2022/04/11 09:46:52;;;;;;;5.53;2.13;;;10.40;33.30;;;;;;5060641;28;46481;-64
2022/04/11 09:49:18;;;;;;;7.90;2.27;;;10.60;34.30;;;;;;5060207;28;46469;-64
2022/04/11 09:52:08;;;;;;;5.43;2.10;;;10.60;33.30;;;;;;5066043;28;46468;-63
2022/04/11 09:54:44;;;;;;;8.00;2.47;;;10.40;32.20;;;;;;5064009;28;47932;-64
2022/04/11 09:57:15;;;;;;;5.97;2.47;;;10.50;33.20;;;;;;5063752;27;46604;-63
2022/04/11 09:59:41;;;;;;;4.60;2.70;;;10.80;33.40;;;;;;5052057;28;46529;-64
2022/04/11 10:02:11;;;;;;;5.00;2.53;;;10.80;33.30;;;;;;5065738;28;46579;-64
2022/04/11 10:04:39;;;;;;;4.60;2.33;;;10.80;32.40;;;;;;5068957;28;47957;-64
2022/04/11 10:07:09;;;;;;;5.07;2.47;;;10.80;32.90;;;;;;5065149;28;46460;-64
2022/04/11 10:09:39;;;;;;;5.80;3.00;;;10.80;31.30;;;;;;5063537;28;46445;-64
2022/04/11 10:12:05;;;;;;;3.80;2.40;;;10.90;31.80;;;;;;5058084;28;46619;-64
2022/04/11 10:14:31;;;;;;;4.20;2.63;;;11.10;32.90;;;;;;5083941;28;47372;-64
2022/04/11 10:17:02;;;;;;;4.33;2.57;;;11.40;33.20;;;;;;5059397;28;46331;-64
2022/04/11 10:19:33;;;;;;;3.80;2.60;;;11.60;32.00;;;;;;5066699;28;46503;-64
2022/04/11 10:22:04;;;;;;;5.10;2.60;;;11.70;32.30;;;;;;5080324;28;46371;-64
2022/04/11 10:24:35;;;;;;;4.57;2.20;;;11.60;31.90;;;;;;5051904;28;47577;-65
2022/04/11 10:27:23;;;;;;;6.30;2.00;;;11.50;30.50;;;;;;5064534;28;46467;-64
2022/04/11 10:29:53;;;;;;;7.10;2.30;;;11.50;30.00;;;;;;5082718;28;45877;-64
2022/04/11 10:32:21;;;;;;;6.23;2.40;;;11.40;29.50;;;;;;5066374;28;46410;-64
2022/04/11 10:34:49;;;;;;;9.43;2.97;;;11.50;30.00;;;;;;5053368;28;48575;-65
2022/04/11 10:37:17;;;;;;;7.63;2.83;;;11.50;30.00;;;;;;5065734;28;46362;-64
2022/04/11 10:39:47;;;;;;;8.47;3.37;;;11.60;30.40;;;;;;5066277;28;46385;-65
2022/04/11 10:42:13;;;;;;;6.83;3.10;;;11.80;30.80;;;;;;5066773;28;46283;-64
2022/04/11 10:44:40;;;;;;;4.60;2.40;;;11.70;30.40;;;;;;5065692;28;46279;-64
2022/04/11 10:47:09;;;;;;;6.60;2.13;;;11.70;29.90;;;;;;5066363;28;46319;-64
2022/04/11 10:49:50;;;;;;;3.67;2.30;;;11.90;29.20;;;;;;5066266;28;46476;-64
2022/04/11 10:55:19;;;;;;;6.37;2.70;;;12.00;29.40;;;;;;5083358;28;46422;-64
2022/04/11 10:57:53;;;;;;;6.63;2.53;;;12.00;28.60;;;;;;5064982;28;46645;-64
2022/04/11 11:00:27;;;;;;;4.90;3.27;;;12.00;28.70;;;;;;5065148;28;46432;-64
2022/04/11 11:02:53;;;;;;;6.33;2.70;;;12.00;28.90;;;;;;5062462;28;46333;-63
2022/04/11 11:05:22;;;;;;;4.77;2.63;;;12.00;27.70;;;;;;5064730;28;46721;-64
2022/04/11 11:07:48;;;;;;;3.60;2.23;;;12.10;27.60;;;;;;5054374;28;46388;-64
2022/04/11 11:10:27;;;;;;;4.57;2.53;;;12.20;27.90;;;;;;5064783;28;46433;-64
2022/04/11 11:13:29;;;;;;;10.63;3.43;;;12.30;27.70;;;;;;5056293;28;46332;-64
2022/04/11 11:15:56;;;;;;;7.47;3.10;;;12.20;28.00;;;;;;5062838;28;46711;-63
2022/04/11 11:18:22;;;;;;;7.10;3.07;;;12.40;28.60;;;;;;5065441;28;46229;-63
2022/04/11 11:20:56;;;;;;;5.60;3.17;;;12.50;28.20;;;;;;5065303;28;46439;-64
2022/04/11 11:23:30;;;;;;;4.83;2.37;;;12.50;28.70;;;;;;5059363;28;46350;-64
2022/04/11 11:26:13;;;;;;;3.10;1.80;;;12.50;27.90;;;;;;5065022;28;48690;-64
2022/04/11 11:28:43;;;;;;;5.40;2.40;;;12.60;27.00;;;;;;5050326;28;46434;-64
2022/04/11 11:31:09;;;;;;;6.17;2.27;;;12.50;26.30;;;;;;5063308;28;46441;-64
2022/04/11 11:33:36;;;;;;;4.13;2.13;;;12.40;25.30;;;;;;5064747;28;46416;-64
2022/04/11 11:36:03;;;;;;;7.83;2.70;;;12.40;24.90;;;;;;5080230;28;46668;-63
2022/04/11 11:38:30;;;;;;;5.07;2.93;;;12.60;25.40;;;;;;5065114;28;46535;-63
2022/04/11 11:41:01;;;;;;;6.60;3.10;;;12.70;26.80;;;;;;5061721;28;46224;-63
2022/04/11 11:43:29;;;;;;;4.03;2.70;;;12.70;26.30;;;;;;5057147;28;46680;-64
2022/04/11 11:45:59;;;;;;;8.43;3.57;;;12.80;26.40;;;;;;5064762;28;48018;-63
2022/04/11 11:48:33;;;;;;;4.60;3.23;;;12.80;26.90;;;;;;5065177;28;46481;-63
2022/04/11 11:51:01;;;;;;;4.93;3.23;;;12.80;26.50;;;;;;5077271;28;46504;-63
2022/04/11 11:53:50;;;;;;;10.87;5.63;;;12.70;26.70;;;;;;5064697;28;46464;-63
2022/04/11 11:56:16;;;;;;;8.40;4.30;;;12.70;27.40;;;;;;5070215;28;46440;-63
2022/04/11 11:58:43;;;;;;;8.00;3.73;;;12.60;27.50;;;;;;5064061;28;46523;-63
2022/04/11 12:01:13;;;;;;;7.83;3.27;;;12.70;28.00;;;;;;5065091;28;45763;-65
2022/04/11 12:06:29;;;;;;;5.43;3.00;;;12.80;27.60;;;;;;5082892;28;46426;-64
2022/04/11 12:09:01;;;;;;;7.23;3.57;;;12.90;27.90;;;;;;5064131;28;45884;-64
2022/04/11 12:11:29;;;;;;;5.57;3.40;;;12.90;28.00;;;;;;5064502;28;46479;-64
2022/04/11 12:14:04;;;;;;;6.27;3.50;;;12.90;27.90;;;;;;5063853;28;46440;-64
2022/04/11 12:16:30;;;;;;;3.60;2.70;;;12.90;28.10;;;;;;5083092;28;46340;-63
2022/04/11 12:18:58;;;;;;;7.47;3.50;;;13.00;27.70;;;;;;5059181;28;46351;-64
2022/04/11 12:21:34;;;;;;;6.83;3.27;;;13.10;27.10;;;;;;5065003;28;46444;-64
2022/04/11 12:24:02;;;;;;;6.03;2.80;;;13.20;26.80;;;;;;5064074;28;46420;-64
2022/04/11 12:26:31;;;;;;;6.73;3.13;;;13.20;26.30;;;;;;5064221;28;46603;-63
2022/04/11 12:29:00;;;;;;;6.00;2.80;;;13.20;26.40;;;;;;5081775;28;46378;-64
2022/04/11 12:31:25;;;;;;;21.53;3.80;;;13.10;25.20;;;;;;5080080;28;46427;-64
2022/04/11 12:33:52;;;;;;;9.10;3.37;;;13.20;26.20;;;;;;5062431;28;46574;-64
2022/04/11 12:36:20;;;;;;;7.33;3.50;;;13.30;26.50;;;;;;5053683;28;47935;-65
2022/04/11 12:39:03;;;;;;;5.40;2.90;;;13.20;25.10;;;;;;5064318;28;46482;-64
2022/04/11 12:41:31;;;;;;;5.33;3.20;;;13.30;25.40;;;;;;5063784;28;46379;-64
2022/04/11 12:44:11;;;;;;;4.53;2.80;;;13.30;25.20;;;;;;5079296;28;46739;-64
2022/04/11 12:46:45;;;;;;;6.27;3.30;;;13.40;25.40;;;;;;5062952;28;48081;-64
2022/04/11 12:49:17;;;;;;;4.30;3.07;;;13.40;24.60;;;;;;5061902;28;46433;-64
2022/04/11 12:52:05;;;;;;;6.10;3.47;;;13.40;24.90;;;;;;5081373;28;46318;-64
2022/04/11 12:54:43;;;;;;;6.00;2.93;;;13.40;25.40;;;;;;5063241;28;46317;-64
2022/04/11 12:57:12;;;;;;;10.00;3.13;;;13.40;25.00;;;;;;5054125;28;47760;-64